sensor_id;sensor_type;location;lat;lon;timestamp;temperature;humidity
22456;DHT22;11395;53.204;6.502;2023-09-19T00:00:46;23.10;99.40
22456;DHT22;11395;53.204;6.502;2023-09-19T00:03:13;23.10;99.60
22456;DHT22;11395;53.204;6.502;2023-09-19T00:05:39;23.10;99.40
22456;DHT22;11395;53.204;6.502;2023-09-19T00:08:05;23.10;99.50
22456;DHT22;11395;53.204;6.502;2023-09-19T00:10:33;23.10;99.40
22456;DHT22;11395;53.204;6.502;2023-09-19T00:13:02;23.10;99.70
22456;DHT22;11395;53.204;6.502;2023-09-19T00:15:41;23.20;99.80
22456;DHT22;11395;53.204;6.502;2023-09-19T00:18:08;23.10;99.90
22456;DHT22;11395;53.204;6.502;2023-09-19T00:20:38;23.10;99.60
22456;DHT22;11395;53.204;6.502;2023-09-19T00:23:05;23.10;99.90
22456;DHT22;11395;53.204;6.502;2023-09-19T00:25:31;23.10;99.70
22456;DHT22;11395;53.204;6.502;2023-09-19T00:28:01;23.00;98.90
22456;DHT22;11395;53.204;6.502;2023-09-19T00:30:27;23.00;99.70
22456;DHT22;11395;53.204;6.502;2023-09-19T00:32:53;23.00;99.40
22456;DHT22;11395;53.204;6.502;2023-09-19T00:35:21;23.00;99.40
22456;DHT22;11395;53.204;6.502;2023-09-19T00:37:51;23.00;99.60
22456;DHT22;11395;53.204;6.502;2023-09-19T00:40:17;23.00;99.60
22456;DHT22;11395;53.204;6.502;2023-09-19T00:42:45;23.10;99.50
22456;DHT22;11395;53.204;6.502;2023-09-19T00:45:13;23.00;99.80
22456;DHT22;11395;53.204;6.502;2023-09-19T00:47:42;23.00;99.70
22456;DHT22;11395;53.204;6.502;2023-09-19T00:50:10;23.00;99.80
22456;DHT22;11395;53.204;6.502;2023-09-19T00:52:38;22.90;99.70
22456;DHT22;11395;53.204;6.502;2023-09-19T00:55:06;22.90;99.80
22456;DHT22;11395;53.204;6.502;2023-09-19T00:57:33;23.00;99.60
22456;DHT22;11395;53.204;6.502;2023-09-19T01:00:01;22.90;99.70
22456;DHT22;11395;53.204;6.502;2023-09-19T01:02:32;22.90;99.70
22456;DHT22;11395;53.204;6.502;2023-09-19T01:04:59;22.90;99.70
22456;DHT22;11395;53.204;6.502;2023-09-19T01:07:31;22.90;99.60
22456;DHT22;11395;53.204;6.502;2023-09-19T01:10:00;22.90;99.90
22456;DHT22;11395;53.204;6.502;2023-09-19T01:13:19;22.90;99.70
22456;DHT22;11395;53.204;6.502;2023-09-19T01:18:16;22.90;99.90
22456;DHT22;11395;53.204;6.502;2023-09-19T01:21:13;22.80;99.90
22456;DHT22;11395;53.204;6.502;2023-09-19T01:26:32;22.90;99.90
22456;DHT22;11395;53.204;6.502;2023-09-19T01:29:39;22.80;99.90
22456;DHT22;11395;53.204;6.502;2023-09-19T01:32:06;22.80;99.90
22456;DHT22;11395;53.204;6.502;2023-09-19T01:34:48;22.90;99.90
22456;DHT22;11395;53.204;6.502;2023-09-19T01:37:18;22.80;99.90
22456;DHT22;11395;53.204;6.502;2023-09-19T01:40:04;22.80;99.30
22456;DHT22;11395;53.204;6.502;2023-09-19T01:43:10;22.80;99.80
22456;DHT22;11395;53.204;6.502;2023-09-19T01:51:05;22.70;99.70
22456;DHT22;11395;53.204;6.502;2023-09-19T01:54:01;22.70;99.90
22456;DHT22;11395;53.204;6.502;2023-09-19T01:56:36;22.70;99.90
22456;DHT22;11395;53.204;6.502;2023-09-19T01:59:08;22.70;99.90
22456;DHT22;11395;53.204;6.502;2023-09-19T02:01:37;22.60;99.90
22456;DHT22;11395;53.204;6.502;2023-09-19T02:04:04;23.10;99.90
22456;DHT22;11395;53.204;6.502;2023-09-19T02:06:32;22.60;99.90
22456;DHT22;11395;53.204;6.502;2023-09-19T02:09:00;23.00;99.90
22456;DHT22;11395;53.204;6.502;2023-09-19T02:11:26;22.60;99.90
22456;DHT22;11395;53.204;6.502;2023-09-19T02:13:52;22.70;99.90
22456;DHT22;11395;53.204;6.502;2023-09-19T02:16:20;22.60;99.90
22456;DHT22;11395;53.204;6.502;2023-09-19T02:18:48;22.60;99.90
22456;DHT22;11395;53.204;6.502;2023-09-19T02:21:16;22.60;99.90
22456;DHT22;11395;53.204;6.502;2023-09-19T02:23:44;22.60;99.90
22456;DHT22;11395;53.204;6.502;2023-09-19T02:26:12;22.60;99.90
22456;DHT22;11395;53.204;6.502;2023-09-19T02:28:41;22.50;99.90
22456;DHT22;11395;53.204;6.502;2023-09-19T02:31:08;22.60;99.90
22456;DHT22;11395;53.204;6.502;2023-09-19T02:33:35;22.50;99.90
22456;DHT22;11395;53.204;6.502;2023-09-19T02:36:01;22.50;99.90
22456;DHT22;11395;53.204;6.502;2023-09-19T02:38:29;22.50;99.90
22456;DHT22;11395;53.204;6.502;2023-09-19T02:40:56;22.60;99.90
22456;DHT22;11395;53.204;6.502;2023-09-19T02:43:23;22.50;99.90
22456;DHT22;11395;53.204;6.502;2023-09-19T02:45:49;22.60;99.90
22456;DHT22;11395;53.204;6.502;2023-09-19T02:48:16;22.50;99.90
22456;DHT22;11395;53.204;6.502;2023-09-19T02:50:43;22.50;99.90
22456;DHT22;11395;53.204;6.502;2023-09-19T02:53:10;22.40;99.90
22456;DHT22;11395;53.204;6.502;2023-09-19T02:55:40;22.40;99.90
22456;DHT22;11395;53.204;6.502;2023-09-19T02:58:07;22.40;99.90
22456;DHT22;11395;53.204;6.502;2023-09-19T03:00:37;22.40;99.90
22456;DHT22;11395;53.204;6.502;2023-09-19T03:03:04;22.50;99.90
22456;DHT22;11395;53.204;6.502;2023-09-19T03:05:32;22.50;99.90
22456;DHT22;11395;53.204;6.502;2023-09-19T03:07:59;22.40;99.90
22456;DHT22;11395;53.204;6.502;2023-09-19T03:10:28;22.40;99.90
22456;DHT22;11395;53.204;6.502;2023-09-19T03:12:58;22.40;99.90
22456;DHT22;11395;53.204;6.502;2023-09-19T03:15:26;22.50;99.90
22456;DHT22;11395;53.204;6.502;2023-09-19T03:17:53;22.30;99.90
22456;DHT22;11395;53.204;6.502;2023-09-19T03:20:22;22.60;99.90
22456;DHT22;11395;53.204;6.502;2023-09-19T03:22:49;22.30;99.90
22456;DHT22;11395;53.204;6.502;2023-09-19T03:25:16;22.30;99.90
22456;DHT22;11395;53.204;6.502;2023-09-19T03:27:44;22.30;99.90
22456;DHT22;11395;53.204;6.502;2023-09-19T03:30:12;22.40;99.90
22456;DHT22;11395;53.204;6.502;2023-09-19T03:32:46;22.30;99.90
22456;DHT22;11395;53.204;6.502;2023-09-19T03:35:16;22.40;99.90
22456;DHT22;11395;53.204;6.502;2023-09-19T03:37:43;22.30;99.90
22456;DHT22;11395;53.204;6.502;2023-09-19T03:40:10;22.30;99.90
22456;DHT22;11395;53.204;6.502;2023-09-19T03:42:41;22.40;99.90
22456;DHT22;11395;53.204;6.502;2023-09-19T03:45:09;22.30;99.90
22456;DHT22;11395;53.204;6.502;2023-09-19T03:47:40;22.30;99.80
22456;DHT22;11395;53.204;6.502;2023-09-19T03:50:08;22.20;99.80
22456;DHT22;11395;53.204;6.502;2023-09-19T03:52:37;22.20;99.90
22456;DHT22;11395;53.204;6.502;2023-09-19T03:55:03;22.20;99.90
22456;DHT22;11395;53.204;6.502;2023-09-19T03:57:30;22.20;99.90
22456;DHT22;11395;53.204;6.502;2023-09-19T03:59:56;22.20;99.90
22456;DHT22;11395;53.204;6.502;2023-09-19T04:02:23;22.20;99.90
22456;DHT22;11395;53.204;6.502;2023-09-19T04:04:51;22.20;99.90
22456;DHT22;11395;53.204;6.502;2023-09-19T04:07:18;22.20;99.90
22456;DHT22;11395;53.204;6.502;2023-09-19T04:09:48;22.20;99.90
22456;DHT22;11395;53.204;6.502;2023-09-19T04:12:15;22.20;99.90
22456;DHT22;11395;53.204;6.502;2023-09-19T04:14:45;22.40;99.90
22456;DHT22;11395;53.204;6.502;2023-09-19T04:17:11;22.10;99.90
22456;DHT22;11395;53.204;6.502;2023-09-19T04:19:37;22.10;99.90
22456;DHT22;11395;53.204;6.502;2023-09-19T04:22:05;22.20;99.90
22456;DHT22;11395;53.204;6.502;2023-09-19T04:24:31;22.20;99.90
22456;DHT22;11395;53.204;6.502;2023-09-19T04:26:58;22.20;99.90
22456;DHT22;11395;53.204;6.502;2023-09-19T04:29:25;22.30;99.90
22456;DHT22;11395;53.204;6.502;2023-09-19T04:31:56;22.50;99.80
22456;DHT22;11395;53.204;6.502;2023-09-19T04:34:25;22.50;99.70
22456;DHT22;11395;53.204;6.502;2023-09-19T04:36:51;22.70;99.40
22456;DHT22;11395;53.204;6.502;2023-09-19T04:39:18;22.70;99.30
22456;DHT22;11395;53.204;6.502;2023-09-19T04:41:44;23.00;99.30
22456;DHT22;11395;53.204;6.502;2023-09-19T04:44:11;23.00;98.90
22456;DHT22;11395;53.204;6.502;2023-09-19T04:46:38;23.20;98.70
22456;DHT22;11395;53.204;6.502;2023-09-19T04:49:05;23.30;98.50
22456;DHT22;11395;53.204;6.502;2023-09-19T04:51:31;23.40;98.60
22456;DHT22;11395;53.204;6.502;2023-09-19T04:54:00;23.50;98.20
22456;DHT22;11395;53.204;6.502;2023-09-19T04:56:27;23.60;98.20
22456;DHT22;11395;53.204;6.502;2023-09-19T04:58:54;23.70;98.10
22456;DHT22;11395;53.204;6.502;2023-09-19T05:01:20;23.70;98.00
22456;DHT22;11395;53.204;6.502;2023-09-19T05:03:49;23.80;97.80
22456;DHT22;11395;53.204;6.502;2023-09-19T05:06:19;23.80;97.60
22456;DHT22;11395;53.204;6.502;2023-09-19T05:08:50;23.90;97.80
22456;DHT22;11395;53.204;6.502;2023-09-19T05:11:18;24.00;98.30
22456;DHT22;11395;53.204;6.502;2023-09-19T05:13:45;24.00;97.50
22456;DHT22;11395;53.204;6.502;2023-09-19T05:16:11;24.00;97.30
22456;DHT22;11395;53.204;6.502;2023-09-19T05:18:38;24.00;97.20
22456;DHT22;11395;53.204;6.502;2023-09-19T05:21:04;24.10;97.10
22456;DHT22;11395;53.204;6.502;2023-09-19T05:23:30;24.10;96.90
22456;DHT22;11395;53.204;6.502;2023-09-19T05:25:57;24.10;96.90
22456;DHT22;11395;53.204;6.502;2023-09-19T05:28:26;24.10;96.80
22456;DHT22;11395;53.204;6.502;2023-09-19T05:30:53;24.20;97.00
22456;DHT22;11395;53.204;6.502;2023-09-19T05:33:19;24.20;96.90
22456;DHT22;11395;53.204;6.502;2023-09-19T05:35:47;24.20;97.10
22456;DHT22;11395;53.204;6.502;2023-09-19T05:38:14;24.20;96.80
22456;DHT22;11395;53.204;6.502;2023-09-19T05:40:45;24.20;96.80
22456;DHT22;11395;53.204;6.502;2023-09-19T05:43:11;24.20;97.20
22456;DHT22;11395;53.204;6.502;2023-09-19T05:45:38;24.20;96.60
22456;DHT22;11395;53.204;6.502;2023-09-19T05:48:12;24.20;96.60
22456;DHT22;11395;53.204;6.502;2023-09-19T05:50:39;24.20;97.40
22456;DHT22;11395;53.204;6.502;2023-09-19T05:53:06;24.20;96.70
22456;DHT22;11395;53.204;6.502;2023-09-19T05:55:33;24.20;96.90
22456;DHT22;11395;53.204;6.502;2023-09-19T05:57:59;24.20;97.10
22456;DHT22;11395;53.204;6.502;2023-09-19T06:00:26;24.20;96.80
22456;DHT22;11395;53.204;6.502;2023-09-19T06:02:54;24.10;97.00
22456;DHT22;11395;53.204;6.502;2023-09-19T06:05:21;24.10;97.00
22456;DHT22;11395;53.204;6.502;2023-09-19T06:07:47;24.20;97.10
22456;DHT22;11395;53.204;6.502;2023-09-19T06:10:14;24.10;97.50
22456;DHT22;11395;53.204;6.502;2023-09-19T06:12:41;24.10;97.60
22456;DHT22;11395;53.204;6.502;2023-09-19T06:15:15;24.80;97.80
22456;DHT22;11395;53.204;6.502;2023-09-19T06:17:42;24.40;97.60
22456;DHT22;11395;53.204;6.502;2023-09-19T06:20:09;24.00;97.70
22456;DHT22;11395;53.204;6.502;2023-09-19T06:22:42;24.00;96.90
22456;DHT22;11395;53.204;6.502;2023-09-19T06:25:10;24.00;97.70
22456;DHT22;11395;53.204;6.502;2023-09-19T06:27:41;24.00;97.80
22456;DHT22;11395;53.204;6.502;2023-09-19T06:30:11;23.90;98.00
22456;DHT22;11395;53.204;6.502;2023-09-19T06:32:40;24.00;97.60
22456;DHT22;11395;53.204;6.502;2023-09-19T06:35:11;23.80;97.60
22456;DHT22;11395;53.204;6.502;2023-09-19T06:37:38;23.90;97.70
22456;DHT22;11395;53.204;6.502;2023-09-19T06:40:08;23.90;97.50
22456;DHT22;11395;53.204;6.502;2023-09-19T06:42:42;23.90;97.60
22456;DHT22;11395;53.204;6.502;2023-09-19T06:45:08;23.90;97.80
22456;DHT22;11395;53.204;6.502;2023-09-19T06:47:37;23.90;97.40
22456;DHT22;11395;53.204;6.502;2023-09-19T06:50:04;23.90;97.40
22456;DHT22;11395;53.204;6.502;2023-09-19T06:52:32;23.90;97.40
22456;DHT22;11395;53.204;6.502;2023-09-19T06:54:59;23.90;97.40
22456;DHT22;11395;53.204;6.502;2023-09-19T06:57:25;23.90;97.50
22456;DHT22;11395;53.204;6.502;2023-09-19T06:59:51;23.90;97.30
22456;DHT22;11395;53.204;6.502;2023-09-19T07:02:17;23.90;97.40
22456;DHT22;11395;53.204;6.502;2023-09-19T07:04:44;23.90;97.40
22456;DHT22;11395;53.204;6.502;2023-09-19T07:07:10;23.90;97.40
22456;DHT22;11395;53.204;6.502;2023-09-19T07:09:39;23.90;97.40
22456;DHT22;11395;53.204;6.502;2023-09-19T07:12:06;24.00;97.30
22456;DHT22;11395;53.204;6.502;2023-09-19T07:14:32;24.00;97.30
22456;DHT22;11395;53.204;6.502;2023-09-19T07:16:58;24.00;97.50
22456;DHT22;11395;53.204;6.502;2023-09-19T07:19:26;24.00;97.20
22456;DHT22;11395;53.204;6.502;2023-09-19T07:21:56;24.00;97.10
22456;DHT22;11395;53.204;6.502;2023-09-19T07:24:22;24.10;97.40
22456;DHT22;11395;53.204;6.502;2023-09-19T07:26:49;24.10;97.60
22456;DHT22;11395;53.204;6.502;2023-09-19T07:29:16;24.10;98.00
22456;DHT22;11395;53.204;6.502;2023-09-19T07:31:42;24.10;98.10
22456;DHT22;11395;53.204;6.502;2023-09-19T07:36:37;25.00;97.60
22456;DHT22;11395;53.204;6.502;2023-09-19T07:39:04;24.10;97.70
22456;DHT22;11395;53.204;6.502;2023-09-19T07:41:33;24.10;98.00
22456;DHT22;11395;53.204;6.502;2023-09-19T07:44:02;24.30;97.60
22456;DHT22;11395;53.204;6.502;2023-09-19T07:46:28;24.20;97.20
22456;DHT22;11395;53.204;6.502;2023-09-19T07:48:57;24.30;96.70
22456;DHT22;11395;53.204;6.502;2023-09-19T07:51:23;24.40;96.70
22456;DHT22;11395;53.204;6.502;2023-09-19T07:53:49;24.40;96.30
22456;DHT22;11395;53.204;6.502;2023-09-19T07:56:16;24.40;96.20
22456;DHT22;11395;53.204;6.502;2023-09-19T07:58:44;24.50;96.30
22456;DHT22;11395;53.204;6.502;2023-09-19T08:01:11;24.50;96.40
22456;DHT22;11395;53.204;6.502;2023-09-19T08:03:39;24.50;96.20
22456;DHT22;11395;53.204;6.502;2023-09-19T08:06:10;24.40;96.20
22456;DHT22;11395;53.204;6.502;2023-09-19T08:08:37;24.50;96.30
22456;DHT22;11395;53.204;6.502;2023-09-19T08:11:04;24.50;96.20
22456;DHT22;11395;53.204;6.502;2023-09-19T08:13:39;24.60;96.10
22456;DHT22;11395;53.204;6.502;2023-09-19T08:16:17;24.60;96.00
22456;DHT22;11395;53.204;6.502;2023-09-19T08:18:48;24.70;96.50
22456;DHT22;11395;53.204;6.502;2023-09-19T08:21:18;24.70;96.40
22456;DHT22;11395;53.204;6.502;2023-09-19T08:23:45;24.80;95.70
22456;DHT22;11395;53.204;6.502;2023-09-19T08:26:11;24.80;95.70
22456;DHT22;11395;53.204;6.502;2023-09-19T08:28:37;24.80;95.50
22456;DHT22;11395;53.204;6.502;2023-09-19T08:31:07;24.80;95.70
22456;DHT22;11395;53.204;6.502;2023-09-19T08:33:36;24.80;95.80
22456;DHT22;11395;53.204;6.502;2023-09-19T08:36:03;24.80;95.70
22456;DHT22;11395;53.204;6.502;2023-09-19T08:38:35;24.80;95.60
22456;DHT22;11395;53.204;6.502;2023-09-19T08:41:05;24.90;96.10
22456;DHT22;11395;53.204;6.502;2023-09-19T08:43:32;24.80;95.90
22456;DHT22;11395;53.204;6.502;2023-09-19T08:46:11;24.80;95.40
22456;DHT22;11395;53.204;6.502;2023-09-19T08:48:48;24.80;95.40
22456;DHT22;11395;53.204;6.502;2023-09-19T08:51:21;24.80;95.20
22456;DHT22;11395;53.204;6.502;2023-09-19T08:54:07;24.90;95.90
22456;DHT22;11395;53.204;6.502;2023-09-19T08:56:33;24.90;95.70
22456;DHT22;11395;53.204;6.502;2023-09-19T08:59:02;24.90;95.50
22456;DHT22;11395;53.204;6.502;2023-09-19T09:01:31;24.90;96.00
22456;DHT22;11395;53.204;6.502;2023-09-19T09:03:58;24.90;96.00
22456;DHT22;11395;53.204;6.502;2023-09-19T09:06:25;24.90;95.60
22456;DHT22;11395;53.204;6.502;2023-09-19T09:08:54;24.90;95.60
22456;DHT22;11395;53.204;6.502;2023-09-19T09:11:21;25.00;95.50
22456;DHT22;11395;53.204;6.502;2023-09-19T09:13:48;25.00;95.60
22456;DHT22;11395;53.204;6.502;2023-09-19T09:16:14;25.00;95.60
22456;DHT22;11395;53.204;6.502;2023-09-19T09:18:45;25.10;95.60
22456;DHT22;11395;53.204;6.502;2023-09-19T09:21:12;25.00;95.40
22456;DHT22;11395;53.204;6.502;2023-09-19T09:23:40;25.00;95.50
22456;DHT22;11395;53.204;6.502;2023-09-19T09:26:06;25.00;95.30
22456;DHT22;11395;53.204;6.502;2023-09-19T09:28:38;25.10;95.40
22456;DHT22;11395;53.204;6.502;2023-09-19T09:31:22;25.00;95.10
22456;DHT22;11395;53.204;6.502;2023-09-19T09:33:53;24.90;96.40
22456;DHT22;11395;53.204;6.502;2023-09-19T09:36:36;24.90;96.30
22456;DHT22;11395;53.204;6.502;2023-09-19T09:39:02;24.90;96.40
22456;DHT22;11395;53.204;6.502;2023-09-19T09:41:45;24.90;95.40
22456;DHT22;11395;53.204;6.502;2023-09-19T09:44:13;24.90;95.50
22456;DHT22;11395;53.204;6.502;2023-09-19T09:46:48;24.90;95.80
22456;DHT22;11395;53.204;6.502;2023-09-19T09:49:25;24.90;95.50
22456;DHT22;11395;53.204;6.502;2023-09-19T09:52:07;24.90;96.20
22456;DHT22;11395;53.204;6.502;2023-09-19T09:54:35;24.90;96.30
22456;DHT22;11395;53.204;6.502;2023-09-19T09:57:09;24.90;95.30
22456;DHT22;11395;53.204;6.502;2023-09-19T09:59:54;24.90;96.00
22456;DHT22;11395;53.204;6.502;2023-09-19T10:04:55;25.00;95.90
22456;DHT22;11395;53.204;6.502;2023-09-19T10:07:41;25.00;95.60
22456;DHT22;11395;53.204;6.502;2023-09-19T10:10:13;25.10;95.50
22456;DHT22;11395;53.204;6.502;2023-09-19T10:12:42;25.20;95.40
22456;DHT22;11395;53.204;6.502;2023-09-19T10:15:11;25.30;95.80
22456;DHT22;11395;53.204;6.502;2023-09-19T10:17:38;25.40;95.80
22456;DHT22;11395;53.204;6.502;2023-09-19T10:20:06;25.50;95.50
22456;DHT22;11395;53.204;6.502;2023-09-19T10:22:45;25.60;95.20
22456;DHT22;11395;53.204;6.502;2023-09-19T10:25:25;25.70;95.40
22456;DHT22;11395;53.204;6.502;2023-09-19T10:27:55;25.90;95.70
22456;DHT22;11395;53.204;6.502;2023-09-19T10:30:24;25.90;95.40
22456;DHT22;11395;53.204;6.502;2023-09-19T10:33:00;25.90;95.80
22456;DHT22;11395;53.204;6.502;2023-09-19T10:35:27;26.00;96.00
22456;DHT22;11395;53.204;6.502;2023-09-19T10:38:00;26.00;95.70
22456;DHT22;11395;53.204;6.502;2023-09-19T10:40:27;26.10;96.40
22456;DHT22;11395;53.204;6.502;2023-09-19T10:43:04;26.20;96.10
22456;DHT22;11395;53.204;6.502;2023-09-19T10:45:36;26.20;97.00
22456;DHT22;11395;53.204;6.502;2023-09-19T10:48:04;26.20;96.80
22456;DHT22;11395;53.204;6.502;2023-09-19T10:50:43;26.20;96.60
22456;DHT22;11395;53.204;6.502;2023-09-19T10:53:12;26.20;97.40
22456;DHT22;11395;53.204;6.502;2023-09-19T10:55:39;26.20;97.10
22456;DHT22;11395;53.204;6.502;2023-09-19T10:58:06;26.20;97.30
22456;DHT22;11395;53.204;6.502;2023-09-19T11:00:58;26.20;96.80
22456;DHT22;11395;53.204;6.502;2023-09-19T11:03:38;26.10;97.30
22456;DHT22;11395;53.204;6.502;2023-09-19T11:06:17;26.20;97.50
22456;DHT22;11395;53.204;6.502;2023-09-19T11:09:01;26.10;97.10
22456;DHT22;11395;53.204;6.502;2023-09-19T11:11:41;26.10;97.50
22456;DHT22;11395;53.204;6.502;2023-09-19T11:30:36;25.90;98.80
22456;DHT22;11395;53.204;6.502;2023-09-19T11:33:17;25.90;98.40
22456;DHT22;11395;53.204;6.502;2023-09-19T11:43:54;26.00;99.90
22456;DHT22;11395;53.204;6.502;2023-09-19T12:14:54;25.70;99.90
22456;DHT22;11395;53.204;6.502;2023-09-19T12:17:23;25.80;99.90
22456;DHT22;11395;53.204;6.502;2023-09-19T12:19:56;25.70;99.90
22456;DHT22;11395;53.204;6.502;2023-09-19T12:22:22;25.70;99.90
22456;DHT22;11395;53.204;6.502;2023-09-19T12:24:48;25.70;99.90
22456;DHT22;11395;53.204;6.502;2023-09-19T12:27:16;25.80;99.90
22456;DHT22;11395;53.204;6.502;2023-09-19T12:29:47;25.70;99.90
22456;DHT22;11395;53.204;6.502;2023-09-19T12:35:08;25.70;99.90
22456;DHT22;11395;53.204;6.502;2023-09-19T12:37:44;25.50;99.90
22456;DHT22;11395;53.204;6.502;2023-09-19T12:40:21;25.50;99.90
22456;DHT22;11395;53.204;6.502;2023-09-19T12:42:59;25.50;99.90
22456;DHT22;11395;53.204;6.502;2023-09-19T12:45:30;25.50;99.90
22456;DHT22;11395;53.204;6.502;2023-09-19T12:48:25;25.50;99.90
22456;DHT22;11395;53.204;6.502;2023-09-19T12:51:10;25.50;99.90
22456;DHT22;11395;53.204;6.502;2023-09-19T12:53:42;25.50;99.90
22456;DHT22;11395;53.204;6.502;2023-09-19T12:56:10;25.40;99.90
22456;DHT22;11395;53.204;6.502;2023-09-19T13:01:16;25.50;99.90
22456;DHT22;11395;53.204;6.502;2023-09-19T13:03:42;25.40;99.90
22456;DHT22;11395;53.204;6.502;2023-09-19T13:06:08;25.40;99.90
22456;DHT22;11395;53.204;6.502;2023-09-19T13:16:20;25.20;99.90
22456;DHT22;11395;53.204;6.502;2023-09-19T20:45:28;23.80;99.90
22456;DHT22;11395;53.204;6.502;2023-09-19T20:47:55;23.90;99.90
22456;DHT22;11395;53.204;6.502;2023-09-19T20:52:48;23.90;99.90
22456;DHT22;11395;53.204;6.502;2023-09-19T22:31:20;23.50;99.90
22456;DHT22;11395;53.204;6.502;2023-09-19T22:36:25;23.50;99.90
22456;DHT22;11395;53.204;6.502;2023-09-19T22:38:58;23.50;99.90
22456;DHT22;11395;53.204;6.502;2023-09-19T22:41:30;23.50;99.90
22456;DHT22;11395;53.204;6.502;2023-09-19T22:43:58;23.50;99.90
22456;DHT22;11395;53.204;6.502;2023-09-19T22:46:25;23.40;99.90
22456;DHT22;11395;53.204;6.502;2023-09-19T22:48:54;23.40;99.90
22456;DHT22;11395;53.204;6.502;2023-09-19T23:11:57;23.30;99.90
22456;DHT22;11395;53.204;6.502;2023-09-19T23:14:29;23.30;99.90
22456;DHT22;11395;53.204;6.502;2023-09-19T23:29:25;23.20;99.90
22456;DHT22;11395;53.204;6.502;2023-09-19T23:31:51;23.20;99.90
22456;DHT22;11395;53.204;6.502;2023-09-19T23:34:17;23.20;99.90
